Time;durP1;ratioP1;P1;durP2;ratioP2;P2;SDS_P1;SDS_P2;PMS_P1;PMS_P2;Temp;Humidity;BMP_temperature;BMP_pressure;BME280_temperature;BME280_humidity;BME280_pressure;Samples;Min_cycle;Max_cycle;Signal;HPM_P1;HPM_P2
2022/11/06 00:02:13;;;;;;;22.08;11.82;;;;;;;7.78;100.00;101359.59;5011630;28;20448;-62
2022/11/06 00:04:39;;;;;;;22.33;12.40;;;;;;;7.78;100.00;101354.06;5011260;28;20037;-61
2022/11/06 00:07:04;;;;;;;20.30;11.75;;;;;;;7.78;100.00;101361.50;5011518;28;20051;-62
2022/11/06 00:09:29;;;;;;;24.15;12.38;;;;;;;7.75;100.00;101362.88;5029521;28;20098;-60
2022/11/06 00:11:55;;;;;;;20.15;12.05;;;;;;;7.71;100.00;101364.50;5030533;28;20033;-61
2022/11/06 00:14:20;;;;;;;20.95;11.82;;;;;;;7.80;100.00;101373.88;5032626;28;20345;-61
2022/11/06 00:16:46;;;;;;;21.58;11.80;;;;;;;7.74;100.00;101368.69;5032643;28;20049;-62
2022/11/06 00:19:12;;;;;;;21.95;12.55;;;;;;;7.73;100.00;101364.25;5032419;28;20080;-62
2022/11/06 00:21:38;;;;;;;21.02;12.07;;;;;;;7.72;100.00;101365.38;5010653;28;20507;-61
2022/11/06 00:24:05;;;;;;;21.40;11.80;;;;;;;7.68;100.00;101373.34;5032722;28;20025;-61
2022/11/06 00:26:32;;;;;;;20.65;12.20;;;;;;;7.65;100.00;101360.94;5032429;28;20033;-61
2022/11/06 00:28:58;;;;;;;22.02;11.90;;;;;;;7.61;100.00;101368.09;5032692;28;20051;-62
2022/11/06 00:31:26;;;;;;;19.50;11.45;;;;;;;7.59;100.00;101351.03;5032605;28;20017;-62
2022/11/06 00:33:53;;;;;;;21.40;12.00;;;;;;;7.63;100.00;101356.81;5032436;28;20108;-61
2022/11/06 00:36:20;;;;;;;21.92;11.73;;;;;;;7.65;100.00;101351.84;5032445;28;20394;-62
2022/11/06 00:38:46;;;;;;;20.05;11.98;;;;;;;7.65;100.00;101344.41;5014637;28;20066;-62
2022/11/06 00:41:14;;;;;;;20.58;11.70;;;;;;;7.65;100.00;101349.91;5032306;28;20055;-62
2022/11/06 00:43:40;;;;;;;21.50;11.65;;;;;;;7.68;100.00;101343.06;5032364;28;20037;-62
2022/11/06 00:46:08;;;;;;;21.98;12.10;;;;;;;7.63;100.00;101332.03;5032488;28;20025;-62
2022/11/06 00:48:35;;;;;;;20.25;11.07;;;;;;;7.69;100.00;101341.97;5032365;28;20025;-62
2022/11/06 00:51:06;;;;;;;21.95;11.80;;;;;;;7.71;100.00;101338.91;5032387;28;20036;-62
2022/11/06 00:53:31;;;;;;;20.10;11.32;;;;;;;7.69;100.00;101341.97;5032167;28;20041;-61
2022/11/06 00:56:05;;;;;;;20.08;11.68;;;;;;;7.63;100.00;101343.88;5031976;28;20108;-61
2022/11/06 00:58:30;;;;;;;22.13;11.38;;;;;;;7.62;100.00;101344.97;5032121;28;20048;-62
2022/11/06 01:00:55;;;;;;;20.35;11.77;;;;;;;7.62;100.00;101347.72;5031622;28;20370;-61
2022/11/06 01:03:20;;;;;;;21.80;11.88;;;;;;;7.58;100.00;101337.53;5032045;28;20045;-61
2022/11/06 01:05:46;;;;;;;20.52;11.23;;;;;;;7.55;100.00;101338.06;5031869;28;20021;-62
2022/11/06 01:08:11;;;;;;;19.35;11.38;;;;;;;7.52;100.00;101344.13;5031796;28;20030;-61
2022/11/06 01:10:36;;;;;;;20.77;11.57;;;;;;;7.47;100.00;101347.69;5031759;28;20036;-61
2022/11/06 01:13:01;;;;;;;18.63;11.55;;;;;;;7.48;100.00;101346.59;5031843;28;20084;-62
2022/11/06 01:15:27;;;;;;;18.90;11.27;;;;;;;7.42;100.00;101345.75;5031873;28;20096;-61
2022/11/06 01:17:52;;;;;;;20.42;11.40;;;;;;;7.41;100.00;101355.13;5031675;28;20087;-62
2022/11/06 01:20:17;;;;;;;18.25;10.82;;;;;;;7.39;100.00;101351.81;5031683;28;20022;-61
2022/11/06 01:22:42;;;;;;;19.65;11.55;;;;;;;7.38;100.00;101341.91;5030880;28;20095;-60
2022/11/06 01:25:08;;;;;;;20.95;11.10;;;;;;;7.39;100.00;101332.56;5027855;28;20417;-61
2022/11/06 01:27:33;;;;;;;22.92;11.07;;;;;;;7.38;100.00;101328.16;5031459;28;20047;-60
2022/11/06 01:29:59;;;;;;;19.52;11.30;;;;;;;7.38;100.00;101322.63;5030832;28;20083;-61
2022/11/06 01:32:24;;;;;;;20.15;10.82;;;;;;;7.33;100.00;101315.19;5031301;28;20481;-60
2022/11/06 01:34:50;;;;;;;22.88;11.35;;;;;;;7.30;100.00;101324.00;5031326;28;20021;-60
2022/11/06 01:37:15;;;;;;;19.02;10.65;;;;;;;7.29;100.00;101316.84;5031147;28;20470;-60
2022/11/06 01:39:41;;;;;;;19.73;11.23;;;;;;;7.32;100.00;101313.53;5031108;28;20037;-58
2022/11/06 01:42:10;;;;;;;22.13;10.85;;;;;;;7.26;100.00;101300.88;5030550;28;20102;-60
2022/11/06 01:44:41;;;;;;;18.77;10.80;;;;;;;7.36;100.00;101308.31;5031397;28;20033;-59
2022/11/06 01:47:25;;;;;;;19.20;10.85;;;;;;;7.37;100.00;101304.47;5031111;28;20076;-59
2022/11/06 01:49:56;;;;;;;19.00;10.95;;;;;;;7.39;100.00;101304.19;5031190;28;20071;-60
2022/11/06 01:52:22;;;;;;;21.17;11.05;;;;;;;7.34;100.00;101296.75;5031324;28;20044;-60
2022/11/06 01:54:51;;;;;;;19.13;10.68;;;;;;;7.43;100.00;101305.31;5049449;28;20419;-61
2022/11/06 01:57:17;;;;;;;19.08;11.02;;;;;;;7.46;100.00;101300.06;5050629;28;20047;-60
2022/11/06 01:59:44;;;;;;;21.13;10.75;;;;;;;7.48;100.00;101308.91;5050868;28;20025;-61
2022/11/06 02:02:11;;;;;;;18.33;10.85;;;;;;;7.51;100.00;101310.25;5050918;28;20163;-59
2022/11/06 02:04:42;;;;;;;17.85;10.05;;;;;;;7.55;100.00;101305.03;5050711;28;20033;-60
2022/11/06 02:07:08;;;;;;;18.65;11.00;;;;;;;7.59;100.00;101298.69;5050866;28;20119;-61
2022/11/06 02:09:34;;;;;;;17.33;10.23;;;;;;;7.62;100.00;101294.56;5050628;28;20472;-60
2022/11/06 02:12:12;;;;;;;22.33;11.10;;;;;;;7.63;100.00;101296.22;5050534;28;20025;-61
2022/11/06 02:15:15;;;;;;;21.35;10.45;;;;;;;7.67;100.00;101297.34;5050549;28;20087;-61
2022/11/06 02:17:52;;;;;;;18.65;10.15;;;;;;;7.61;100.00;101279.97;5064916;22;20400;-61
2022/11/06 02:20:24;;;;;;;18.02;10.20;;;;;;;7.71;100.00;101286.59;5050645;28;20044;-61
2022/11/06 02:23:08;;;;;;;19.02;10.75;;;;;;;7.74;100.00;101291.56;5050863;28;20020;-61
2022/11/06 02:26:01;;;;;;;20.30;11.02;;;;;;;7.77;100.00;101279.97;5047764;28;20032;-61
2022/11/06 02:28:48;;;;;;;20.15;10.45;;;;;;;7.83;100.00;101270.63;5050779;28;20392;-61
2022/11/06 02:31:19;;;;;;;19.75;10.65;;;;;;;7.74;100.00;101262.06;5051003;28;20141;-60
2022/11/06 02:33:56;;;;;;;17.05;10.10;;;;;;;7.85;100.00;101268.38;5050129;28;20386;-61
2022/11/06 02:36:29;;;;;;;19.58;10.27;;;;;;;7.87;100.00;101268.94;5050371;28;20036;-60
2022/11/06 02:39:00;;;;;;;18.17;10.83;;;;;;;7.87;100.00;101274.44;5051114;28;20025;-60
2022/11/06 02:41:31;;;;;;;18.75;10.35;;;;;;;7.89;100.00;101271.41;5050383;28;20277;-61
2022/11/06 02:43:58;;;;;;;18.52;10.50;;;;;;;7.93;100.00;101261.50;5050376;28;20037;-61
2022/11/06 02:46:30;;;;;;;18.08;10.52;;;;;;;7.89;100.00;101255.72;5050311;28;20028;-61
2022/11/06 02:49:01;;;;;;;17.00;10.23;;;;;;;7.88;100.00;101254.06;5050492;28;20024;-61
2022/11/06 02:51:30;;;;;;;20.17;10.80;;;;;;;7.89;100.00;101249.38;5050446;28;20544;-61
2022/11/06 02:54:01;;;;;;;18.52;10.10;;;;;;;7.96;100.00;101255.44;5050164;28;20104;-61
2022/11/06 02:56:32;;;;;;;18.30;10.80;;;;;;;7.94;100.00;101258.44;5050326;28;20069;-61
2022/11/06 02:59:10;;;;;;;18.58;10.40;;;;;;;7.97;100.00;101263.41;5050640;28;20036;-61
2022/11/06 03:01:40;;;;;;;19.75;10.25;;;;;;;7.98;100.00;101258.75;5050746;28;20071;-61
2022/11/06 03:04:25;;;;;;;18.35;9.93;;;;;;;7.99;100.00;101254.88;5033418;28;20067;-61
2022/11/06 03:06:58;;;;;;;20.17;10.40;;;;;;;8.00;100.00;101250.19;5051141;28;20029;-61
2022/11/06 03:09:30;;;;;;;18.67;10.45;;;;;;;8.05;100.00;101262.03;5050524;28;20033;-62
2022/11/06 03:12:04;;;;;;;20.45;10.38;;;;;;;8.03;100.00;101266.19;5050321;28;20040;-62
2022/11/06 03:14:42;;;;;;;20.48;10.27;;;;;;;8.04;100.00;101268.66;5050362;28;20032;-63
2022/11/06 03:17:14;;;;;;;20.30;11.10;;;;;;;8.04;100.00;101270.56;5050044;28;20064;-63
2022/11/06 03:20:20;;;;;;;18.45;10.38;;;;;;;8.10;100.00;101272.22;5050123;28;20037;-62
2022/11/06 03:22:54;;;;;;;20.58;10.50;;;;;;;8.13;100.00;101282.66;5049959;28;20033;-62
2022/11/06 03:25:25;;;;;;;20.30;10.40;;;;;;;8.07;100.00;101253.47;5029215;28;20063;-60
2022/11/06 03:28:14;;;;;;;18.98;10.10;;;;;;;8.15;100.00;101254.84;5050319;28;20041;-60
2022/11/06 03:30:49;;;;;;;17.25;9.65;;;;;;;8.18;100.00;101262.53;5050046;28;20060;-61
2022/11/06 03:33:19;;;;;;;16.95;10.18;;;;;;;8.12;100.00;101240.53;5049846;28;20029;-61
2022/11/06 03:35:53;;;;;;;19.25;10.43;;;;;;;8.07;100.00;101235.03;5049774;28;20104;-61
2022/11/06 03:38:27;;;;;;;19.60;9.93;;;;;;;8.01;100.00;101236.13;5049536;28;20548;-60
2022/11/06 03:40:57;;;;;;;19.65;10.77;;;;;;;8.00;100.00;101225.41;5049487;28;20102;-61
2022/11/06 03:43:27;;;;;;;18.75;10.20;;;;;;;7.97;100.00;101222.09;5049494;28;20043;-61
2022/11/06 03:45:56;;;;;;;18.33;9.90;;;;;;;7.97;100.00;101222.09;5031936;28;20060;-61
2022/11/06 03:48:38;;;;;;;16.15;9.77;;;;;;;7.97;100.00;101229.53;5053435;28;20032;-62
2022/11/06 03:51:20;;;;;;;19.05;10.18;;;;;;;7.95;100.00;101210.53;5053434;28;20040;-62
2022/11/06 03:53:58;;;;;;;19.67;10.18;;;;;;;7.95;100.00;101202.25;5035247;28;20482;-61
2022/11/06 03:56:29;;;;;;;21.90;10.85;;;;;;;8.06;100.00;101207.75;5053359;28;20208;-61
2022/11/06 03:58:57;;;;;;;18.08;9.80;;;;;;;8.06;100.00;101197.56;5053547;28;20029;-62
2022/11/06 04:01:32;;;;;;;18.38;9.88;;;;;;;8.06;100.00;101199.47;5053356;28;20038;-62
2022/11/06 04:04:03;;;;;;;21.50;10.25;;;;;;;8.06;100.00;101194.81;5053544;28;20041;-62
2022/11/06 04:06:34;;;;;;;18.30;9.93;;;;;;;8.09;100.00;101194.22;5053808;28;20033;-62
2022/11/06 04:14:37;;;;;;;18.98;10.50;;;;;;;8.12;100.00;101193.66;5053755;28;20583;-62
2022/11/06 04:17:09;;;;;;;19.42;10.40;;;;;;;8.16;100.00;101191.16;5053594;28;20043;-62
2022/11/06 04:19:34;;;;;;;17.98;10.23;;;;;;;8.11;100.00;101182.94;5052310;28;20049;-62
2022/11/06 04:22:16;;;;;;;20.63;10.18;;;;;;;8.11;100.00;101188.44;5053737;28;20033;-62
2022/11/06 04:28:00;;;;;;;17.80;9.90;;;;;;;8.09;100.00;101174.13;5053739;28;20518;-61
2022/11/06 04:30:31;;;;;;;19.52;10.73;;;;;;;8.05;100.00;101160.09;5053222;28;20052;-60
2022/11/06 04:33:13;;;;;;;20.83;10.50;;;;;;;8.04;100.00;101163.94;5053159;28;20025;-59
2022/11/06 04:36:04;;;;;;;17.70;10.57;;;;;;;8.05;100.00;101156.50;5052936;28;20467;-60
2022/11/06 04:39:05;;;;;;;19.60;10.55;;;;;;;8.03;100.00;101165.03;5052977;28;20053;-61
2022/11/06 04:41:44;;;;;;;20.00;10.75;;;;;;;7.97;100.00;101150.47;5052790;28;20051;-60
2022/11/06 04:44:22;;;;;;;20.17;10.80;;;;;;;7.89;100.00;101140.03;5053031;28;20546;-60
2022/11/06 04:46:53;;;;;;;19.60;10.85;;;;;;;7.83;100.00;101135.66;5052829;28;20033;-62
2022/11/06 04:49:21;;;;;;;19.13;10.57;;;;;;;7.86;100.00;101153.53;5053024;28;20369;-61
2022/11/06 04:51:47;;;;;;;19.23;10.57;;;;;;;7.79;100.00;101157.38;5052895;28;20036;-61
2022/11/06 04:54:13;;;;;;;20.27;10.65;;;;;;;7.73;100.00;101153.00;5052708;28;20025;-61
2022/11/06 04:56:39;;;;;;;21.50;10.98;;;;;;;7.73;100.00;101149.44;5052310;28;20037;-60
2022/11/06 04:59:05;;;;;;;20.88;11.00;;;;;;;7.67;100.00;101145.03;5052227;28;20071;-60
2022/11/06 05:01:31;;;;;;;18.10;10.90;;;;;;;7.62;100.00;101146.72;5052752;28;20048;-61
2022/11/06 05:03:56;;;;;;;19.40;10.63;;;;;;;7.59;100.00;101151.97;5052730;28;20028;-61
2022/11/06 05:06:21;;;;;;;19.55;10.80;;;;;;;7.56;100.00;101147.00;5035094;28;20032;-61
2022/11/06 05:08:47;;;;;;;17.92;10.57;;;;;;;7.54;100.00;101152.78;5053165;28;20056;-61
2022/11/06 05:11:12;;;;;;;19.55;11.07;;;;;;;7.49;100.00;101134.34;5034757;28;20021;-62
2022/11/06 05:13:38;;;;;;;19.05;10.68;;;;;;;7.47;100.00;101143.97;5052934;28;20041;-59
2022/11/06 05:16:04;;;;;;;19.48;11.23;;;;;;;7.42;100.00;101133.78;5052844;28;20071;-60
2022/11/06 05:18:29;;;;;;;19.27;10.77;;;;;;;7.39;100.00;101137.13;5052056;28;20056;-60
2022/11/06 05:23:43;;;;;;;18.90;10.93;;;;;;;7.36;100.00;101129.41;5052157;28;20132;-60
2022/11/06 05:26:09;;;;;;;19.63;11.18;;;;;;;7.34;100.00;101123.34;5052096;28;20144;-60
2022/11/06 05:28:34;;;;;;;19.40;11.15;;;;;;;7.32;100.00;101123.63;5049234;28;20481;-60
2022/11/06 05:31:00;;;;;;;18.10;11.05;;;;;;;7.29;100.00;101126.13;5051792;28;20060;-60
2022/11/06 05:33:25;;;;;;;21.65;11.07;;;;;;;7.29;100.00;101135.19;5051896;28;20044;-61
2022/11/06 05:35:51;;;;;;;20.00;10.90;;;;;;;7.28;100.00;101132.72;5051653;28;20549;-62
2022/11/06 05:38:16;;;;;;;19.58;10.68;;;;;;;7.27;100.00;101136.56;5033772;28;20025;-61
2022/11/06 05:40:41;;;;;;;18.80;11.20;;;;;;;7.24;100.00;101137.13;5051320;28;20493;-62
2022/11/06 05:43:06;;;;;;;20.27;11.25;;;;;;;7.23;100.00;101128.06;5051316;28;20033;-61
2022/11/06 05:45:32;;;;;;;18.30;10.98;;;;;;;7.18;100.00;101117.88;5051340;28;20112;-61
2022/11/06 05:47:57;;;;;;;17.85;11.40;;;;;;;7.21;100.00;101113.75;5051272;28;20445;-61
2022/11/06 05:50:23;;;;;;;19.30;11.20;;;;;;;7.20;100.00;101111.28;5051461;28;20120;-61
2022/11/06 05:52:48;;;;;;;20.35;11.77;;;;;;;7.19;100.00;101113.19;5051713;28;20040;-61
2022/11/06 05:55:13;;;;;;;20.70;11.30;;;;;;;7.18;100.00;101108.78;5051710;28;20067;-62
2022/11/06 05:57:39;;;;;;;19.63;12.30;;;;;;;7.17;100.00;101113.47;5051396;28;20091;-61
2022/11/06 06:00:06;;;;;;;21.65;12.85;;;;;;;7.16;100.00;101109.06;5051577;28;20036;-61
2022/11/06 06:02:31;;;;;;;20.90;11.68;;;;;;;7.16;100.00;101114.56;5051489;28;20040;-62
2022/11/06 06:04:57;;;;;;;21.05;11.38;;;;;;;7.15;100.00;101107.41;5033950;28;20151;-62
2022/11/06 06:07:22;;;;;;;20.40;11.57;;;;;;;7.18;100.00;101100.53;5051362;28;20469;-61
2022/11/06 06:09:48;;;;;;;19.15;11.18;;;;;;;7.23;100.00;101092.28;5050377;28;20029;-61
2022/11/06 06:12:13;;;;;;;19.83;11.60;;;;;;;7.26;100.00;101101.91;5050857;28;20021;-61
2022/11/06 06:14:39;;;;;;;20.65;11.43;;;;;;;7.26;100.00;101088.97;5051078;28;20052;-62
2022/11/06 06:17:04;;;;;;;19.35;11.55;;;;;;;7.28;100.00;101095.00;5051205;28;20036;-62
2022/11/06 06:19:29;;;;;;;21.13;11.23;;;;;;;7.29;100.00;101096.66;5050902;28;20076;-62
2022/11/06 06:21:55;;;;;;;20.55;11.30;;;;;;;7.32;100.00;101087.84;5051079;28;20075;-62
2022/11/06 06:24:20;;;;;;;18.50;11.10;;;;;;;7.30;100.00;101084.56;5047957;28;20387;-61
2022/11/06 06:26:45;;;;;;;20.13;10.75;;;;;;;7.32;100.00;101087.06;5050791;28;20044;-61
2022/11/06 06:29:11;;;;;;;19.83;11.07;;;;;;;7.24;100.00;101080.16;5050507;28;20035;-61
2022/11/06 06:31:36;;;;;;;19.13;10.70;;;;;;;7.30;100.00;101087.31;5050551;28;20441;-62
2022/11/06 06:34:02;;;;;;;20.15;11.32;;;;;;;7.30;100.00;101087.31;5032785;28;20046;-62
2022/11/06 06:36:27;;;;;;;20.70;11.13;;;;;;;7.29;100.00;101087.59;5050827;28;20350;-62
2022/11/06 06:38:53;;;;;;;18.80;11.27;;;;;;;7.31;100.00;101088.16;5050953;28;20028;-62
2022/11/06 06:41:18;;;;;;;19.00;10.90;;;;;;;7.35;100.00;101089.22;5050720;28;20534;-62
2022/11/06 06:43:47;;;;;;;21.80;11.23;;;;;;;7.37;100.00;101091.72;5050808;28;20052;-61
2022/11/06 06:46:12;;;;;;;18.92;11.10;;;;;;;7.43;100.00;101104.34;5050625;28;20484;-62
2022/11/06 06:48:37;;;;;;;20.27;11.32;;;;;;;7.47;100.00;101102.69;5050463;28;20035;-62
2022/11/06 06:51:03;;;;;;;20.88;10.77;;;;;;;7.53;100.00;101100.75;5050362;28;20024;-62
2022/11/06 06:53:29;;;;;;;19.20;10.93;;;;;;;7.56;100.00;101100.19;5050257;28;20025;-62
2022/11/06 06:55:58;;;;;;;18.38;10.60;;;;;;;7.59;100.00;101094.94;5032011;28;20021;-61
2022/11/06 06:58:23;;;;;;;19.42;10.88;;;;;;;7.61;100.00;101089.16;5050503;28;20112;-61
2022/11/06 07:00:48;;;;;;;20.38;11.10;;;;;;;7.59;100.00;101086.69;5050615;28;20127;-62
2022/11/06 07:03:14;;;;;;;18.20;10.77;;;;;;;7.62;100.00;101072.38;5050696;28;20033;-62
2022/11/06 07:05:39;;;;;;;17.70;10.57;;;;;;;7.68;100.00;101078.69;5033027;28;20104;-60
2022/11/06 07:08:04;;;;;;;18.10;10.18;;;;;;;7.67;100.00;101071.53;5050891;28;20113;-61
2022/11/06 07:10:30;;;;;;;17.60;10.15;;;;;;;7.74;100.00;101082.25;5050692;28;20473;-61
2022/11/06 07:13:00;;;;;;;20.38;10.43;;;;;;;7.78;100.00;101080.56;5050321;28;20468;-61
2022/11/06 07:15:25;;;;;;;19.15;10.23;;;;;;;7.87;100.00;101086.31;5050575;28;20035;-61
2022/11/06 07:17:50;;;;;;;20.67;10.18;;;;;;;7.94;100.00;101064.81;5050540;28;20140;-60
2022/11/06 07:20:15;;;;;;;18.48;10.32;;;;;;;8.02;100.00;101066.16;5048082;28;20056;-61
2022/11/06 07:22:41;;;;;;;17.88;9.48;;;;;;;8.17;100.00;101062.50;5054933;28;20104;-61
2022/11/06 07:25:06;;;;;;;18.15;9.98;;;;;;;8.24;100.00;101074.81;5054942;28;20422;-61
2022/11/06 07:27:32;;;;;;;18.67;9.88;;;;;;;8.33;100.00;101066.78;5054624;28;20040;-60
2022/11/06 07:29:59;;;;;;;21.30;10.25;;;;;;;8.34;100.00;101064.84;5054709;28;20025;-61
2022/11/06 07:32:24;;;;;;;16.45;9.88;;;;;;;8.48;100.00;101071.41;5054847;28;20191;-60
2022/11/06 07:34:50;;;;;;;19.77;10.10;;;;;;;8.53;100.00;101068.59;5054638;28;20590;-61
2022/11/06 07:37:15;;;;;;;16.33;9.98;;;;;;;8.58;100.00;101074.09;5054643;28;20485;-60
2022/11/06 07:39:40;;;;;;;18.27;9.80;;;;;;;8.65;100.00;101065.47;5057210;28;20029;-61
2022/11/06 07:42:05;;;;;;;16.65;9.73;;;;;;;8.70;100.00;101078.41;5034002;28;20029;-61
2022/11/06 07:44:31;;;;;;;17.13;9.65;;;;;;;8.71;100.00;101069.84;5050915;28;20471;-60
2022/11/06 07:46:56;;;;;;;18.73;10.00;;;;;;;8.76;100.00;101068.16;5046848;28;20131;-61
2022/11/06 07:49:21;;;;;;;19.00;10.02;;;;;;;8.76;100.00;101074.50;5049764;28;20071;-57
2022/11/06 07:51:47;;;;;;;18.52;9.90;;;;;;;8.79;100.00;101070.34;5016727;28;20086;-59
2022/11/06 07:54:12;;;;;;;20.00;9.70;;;;;;;8.80;100.00;101056.25;5034246;28;20488;-61
2022/11/06 07:56:37;;;;;;;18.73;10.02;;;;;;;8.85;100.00;101058.16;5015931;28;20151;-62
2022/11/06 07:59:03;;;;;;;17.95;10.00;;;;;;;8.86;100.00;101057.88;5034332;28;20056;-61
2022/11/06 08:01:29;;;;;;;18.02;9.68;;;;;;;8.90;100.00;101053.41;5048320;28;20452;-61
2022/11/06 08:03:54;;;;;;;17.50;9.65;;;;;;;8.94;100.00;101052.84;5051176;28;20026;-62
2022/11/06 08:06:20;;;;;;;19.95;9.90;;;;;;;9.00;100.00;101046.16;5031115;28;20024;-62
2022/11/06 08:08:45;;;;;;;16.23;9.02;;;;;;;8.97;100.00;101038.47;5053611;28;20032;-61
2022/11/06 08:11:12;;;;;;;18.20;9.60;;;;;;;9.05;100.00;101057.16;5035587;28;20040;-62
2022/11/06 08:13:37;;;;;;;17.83;9.30;;;;;;;9.05;100.00;101057.97;5025539;28;20389;-62
2022/11/06 08:16:13;;;;;;;18.60;9.40;;;;;;;9.10;100.00;101057.09;5020767;28;20063;-61
2022/11/06 08:18:40;;;;;;;18.13;9.40;;;;;;;9.11;100.00;101049.66;5042350;28;20049;-62
2022/11/06 08:21:06;;;;;;;17.83;9.35;;;;;;;9.11;100.00;101052.41;5045034;28;20025;-61
2022/11/06 08:23:32;;;;;;;18.77;9.80;;;;;;;9.11;100.00;101044.13;5042980;28;20877;-62
2022/11/06 08:26:00;;;;;;;17.83;10.05;;;;;;;9.11;100.00;101042.19;5044468;28;20029;-61
2022/11/06 08:28:27;;;;;;;16.83;9.30;;;;;;;9.15;100.00;101045.19;5038654;28;20040;-61
2022/11/06 08:30:53;;;;;;;19.90;9.40;;;;;;;9.20;100.00;101026.63;5033416;28;20056;-61
2022/11/06 08:33:19;;;;;;;18.95;9.63;;;;;;;9.26;100.00;101026.59;5032376;28;20425;-61
2022/11/06 08:35:45;;;;;;;16.92;9.38;;;;;;;9.30;100.00;101022.94;5033338;28;20419;-62
2022/11/06 08:38:10;;;;;;;19.33;9.30;;;;;;;9.39;100.00;101036.91;5033190;28;20028;-62
2022/11/06 08:40:37;;;;;;;17.13;9.48;;;;;;;9.43;100.00;101026.09;5032905;28;20033;-62
2022/11/06 08:43:08;;;;;;;16.92;9.20;;;;;;;9.42;99.41;101010.66;5033037;28;20036;-62
2022/11/06 08:45:39;;;;;;;17.00;8.95;;;;;;;9.53;99.18;101020.47;5033030;28;20480;-62
2022/11/06 08:48:06;;;;;;;16.15;9.10;;;;;;;9.56;99.44;101017.13;5033290;28;20067;-61
2022/11/06 08:50:32;;;;;;;15.93;9.10;;;;;;;9.65;99.42;101014.50;5033037;28;20025;-62
2022/11/06 08:52:59;;;;;;;15.57;9.30;;;;;;;9.73;98.32;101008.31;5033097;28;20540;-61
2022/11/06 08:55:25;;;;;;;17.63;9.15;;;;;;;9.81;98.21;101002.16;5045055;28;20037;-62
2022/11/06 08:57:53;;;;;;;16.80;9.10;;;;;;;9.90;97.47;100995.97;5052988;28;20158;-62
2022/11/06 09:00:18;;;;;;;17.42;9.10;;;;;;;10.00;97.29;101004.13;5052782;28;20477;-65
2022/11/06 09:02:44;;;;;;;14.18;8.63;;;;;;;10.06;96.99;101004.88;5052415;28;20048;-64
2022/11/06 09:05:09;;;;;;;17.40;8.88;;;;;;;10.11;96.30;100990.97;5052380;28;20029;-63
2022/11/06 09:07:34;;;;;;;18.55;9.00;;;;;;;10.17;95.91;100983.41;5052760;28;20040;-63
2022/11/06 09:09:59;;;;;;;16.23;8.90;;;;;;;10.22;95.80;100994.38;5050231;28;20102;-63
2022/11/06 09:12:25;;;;;;;16.80;8.80;;;;;;;10.28;96.29;100993.19;5052322;28;20120;-63
2022/11/06 09:14:50;;;;;;;16.35;8.82;;;;;;;10.36;95.51;100988.91;5052339;28;20040;-62
2022/11/06 09:17:16;;;;;;;17.80;9.10;;;;;;;10.41;95.47;100969.50;5051842;28;20170;-62
2022/11/06 09:19:41;;;;;;;16.50;8.85;;;;;;;10.48;94.36;100967.16;5033145;28;20057;-61
2022/11/06 09:22:07;;;;;;;16.83;9.13;;;;;;;10.55;94.47;100956.53;5013611;28;20045;-61
2022/11/06 09:24:32;;;;;;;17.85;9.30;;;;;;;10.67;94.07;100961.59;5031334;28;20033;-65
2022/11/06 09:26:57;;;;;;;14.55;8.77;;;;;;;10.75;93.41;100949.00;5031603;28;20682;-63
2022/11/06 09:29:23;;;;;;;17.08;8.95;;;;;;;10.85;92.87;100946.03;5031188;28;20026;-63
2022/11/06 09:31:48;;;;;;;13.73;8.82;;;;;;;10.94;92.83;100946.16;5030870;28;20041;-63
2022/11/06 09:34:14;;;;;;;15.63;8.65;;;;;;;11.02;91.35;100948.22;5013105;28;20136;-61
2022/11/06 09:36:39;;;;;;;15.93;8.60;;;;;;;11.08;90.46;100940.63;5031011;28;20022;-62
2022/11/06 09:39:05;;;;;;;15.40;8.68;;;;;;;11.14;90.37;100933.84;5013231;28;20065;-61
2022/11/06 09:41:48;;;;;;;13.52;8.55;;;;;;;11.27;89.52;100943.28;5030361;28;20021;-61
2022/11/06 09:44:22;;;;;;;16.27;8.70;;;;;;;11.38;89.26;100949.44;5012075;28;20489;-61
2022/11/06 09:46:48;;;;;;;13.93;8.52;;;;;;;11.44;87.63;100942.66;5030441;28;20712;-62
2022/11/06 09:49:23;;;;;;;14.57;8.48;;;;;;;11.50;87.10;100946.94;5030815;28;20025;-62
2022/11/06 09:51:59;;;;;;;12.82;8.15;;;;;;;11.62;87.62;100931.75;5030786;28;20071;-62
2022/11/06 09:54:30;;;;;;;14.55;8.38;;;;;;;11.70;86.45;100931.00;5031002;28;20025;-62
2022/11/06 09:57:03;;;;;;;16.92;8.30;;;;;;;11.70;86.14;100922.69;5031100;28;20485;-62
2022/11/06 09:59:33;;;;;;;13.07;8.18;;;;;;;11.73;85.88;100924.84;5030946;28;20215;-61
2022/11/06 10:02:00;;;;;;;16.90;8.38;;;;;;;11.77;86.16;100931.41;5013623;28;20550;-62
2022/11/06 10:04:51;;;;;;;20.25;10.35;;;;;;;11.74;87.28;100923.72;5031229;28;20391;-62
2022/11/06 10:07:27;;;;;;;15.02;8.60;;;;;;;11.66;86.31;100927.25;5030729;28;20068;-62
2022/11/06 10:09:52;;;;;;;14.98;8.77;;;;;;;11.58;86.19;100920.47;5030180;28;20464;-63
2022/11/06 10:12:49;;;;;;;16.80;8.52;;;;;;;11.54;86.93;100923.06;5030409;28;20037;-61
2022/11/06 10:15:23;;;;;;;16.00;8.48;;;;;;;11.46;86.54;100907.16;5030388;28;20033;-64
2022/11/06 10:17:52;;;;;;;16.77;9.38;;;;;;;11.53;86.12;100923.34;5029991;28;20053;-64
2022/11/06 10:20:23;;;;;;;15.80;8.55;;;;;;;11.55;85.73;100904.47;5029722;28;20034;-62
2022/11/06 10:23:00;;;;;;;15.70;8.63;;;;;;;11.77;85.75;100911.19;5030132;28;20047;-61
2022/11/06 10:25:43;;;;;;;14.15;8.15;;;;;;;11.80;85.83;100886.44;5030215;28;20095;-62
2022/11/06 10:28:33;;;;;;;15.05;8.57;;;;;;;11.92;84.08;100908.03;5030030;28;20102;-62
2022/11/06 10:31:13;;;;;;;18.85;7.80;;;;;;;11.93;82.55;100903.34;5030124;28;20453;-62
2022/11/06 10:33:56;;;;;;;13.55;8.05;;;;;;;11.85;82.31;100904.91;5026964;28;20402;-62
2022/11/06 10:36:29;;;;;;;16.35;8.18;;;;;;;11.65;82.40;100908.97;5029371;28;20064;-61
2022/11/06 10:38:56;;;;;;;17.23;8.60;;;;;;;11.53;83.93;100898.41;5029635;28;20055;-61
2022/11/06 10:41:27;;;;;;;15.38;8.13;;;;;;;11.39;84.19;100895.66;5030146;28;20057;-59
2022/11/06 10:44:00;;;;;;;15.27;8.45;;;;;;;11.35;85.03;100901.00;5012629;28;20029;-61
2022/11/06 10:46:34;;;;;;;18.48;8.52;;;;;;;11.33;85.27;100891.38;5027253;28;20025;-60
2022/11/06 10:49:05;;;;;;;18.42;8.70;;;;;;;11.30;84.86;100869.84;5012254;28;20089;-60
2022/11/06 10:51:39;;;;;;;13.27;8.15;;;;;;;11.37;84.13;100889.63;5029802;28;20461;-60
2022/11/06 10:54:07;;;;;;;13.80;7.88;;;;;;;11.42;84.10;100872.09;5029821;28;20025;-60
2022/11/06 10:56:46;;;;;;;19.95;8.68;;;;;;;11.50;84.48;100869.38;5029308;28;20037;-60
2022/11/06 10:59:13;;;;;;;15.70;8.40;;;;;;;11.53;83.31;100870.69;5030579;28;20033;-61
2022/11/06 11:01:38;;;;;;;15.98;8.55;;;;;;;11.57;83.26;100857.88;5030249;28;20266;-61
2022/11/06 11:04:03;;;;;;;16.60;8.75;;;;;;;11.61;82.48;100845.03;5028513;28;20044;-62
2022/11/06 11:06:29;;;;;;;15.55;8.00;;;;;;;11.67;81.85;100838.25;5050344;28;20048;-62
2022/11/06 11:08:54;;;;;;;17.60;8.50;;;;;;;11.79;82.03;100837.66;5050125;28;20552;-62
2022/11/06 11:11:23;;;;;;;15.40;7.95;;;;;;;11.83;80.49;100829.53;5046800;28;20070;-61
2022/11/06 11:14:00;;;;;;;13.13;7.93;;;;;;;11.86;80.86;100829.72;5037235;28;20049;-62
2022/11/06 11:16:31;;;;;;;14.00;7.80;;;;;;;11.83;80.36;100832.31;5038153;28;20057;-62
2022/11/06 11:19:24;;;;;;;16.02;7.95;;;;;;;11.88;80.39;100826.66;5038694;28;20046;-62
2022/11/06 11:21:57;;;;;;;15.57;8.57;;;;;;;11.79;79.83;100811.91;5037018;28;20034;-61
2022/11/06 11:24:23;;;;;;;16.83;8.15;;;;;;;11.89;80.01;100821.91;5028924;28;20030;-61
2022/11/06 11:26:53;;;;;;;16.10;8.02;;;;;;;11.92;79.88;100822.09;5029271;28;20075;-61
2022/11/06 11:29:27;;;;;;;14.68;8.18;;;;;;;11.99;79.70;100824.47;5029535;28;20572;-60
2022/11/06 11:32:00;;;;;;;16.77;8.80;;;;;;;11.88;79.11;100809.19;5029163;28;20493;-60
2022/11/06 11:34:28;;;;;;;19.37;8.80;;;;;;;11.95;79.03;100813.16;5010998;28;20449;-60